Time;durP1;ratioP1;P1;durP2;ratioP2;P2;SDS_P1;SDS_P2;PMS_P1;PMS_P2;Temp;Humidity;BMP_temperature;BMP_pressure;BME280_temperature;BME280_humidity;BME280_pressure;Samples;Min_cycle;Max_cycle;Signal;HPM_P1;HPM_P2
2021/07/01 00:02:09;;;;;;;18.63;15.40;;;;;;;;;;5023944;28;20478;-96
2021/07/01 00:04:36;;;;;;;16.50;14.40;;;;;;;;;;5037524;28;20572;-96
2021/07/01 00:07:03;;;;;;;17.70;16.00;;;;;;;;;;5034546;28;20485;-94
2021/07/01 00:09:29;;;;;;;18.80;14.60;;;;;;;;;;5042613;28;20486;-94
2021/07/01 00:11:57;;;;;;;15.77;14.23;;;;;;;;;;5033503;28;20997;-94
2021/07/01 00:14:25;;;;;;;16.80;15.03;;;;;;;;;;5042019;28;20456;-94
2021/07/01 00:16:52;;;;;;;18.37;16.47;;;;;;;;;;5032948;28;20462;-95
2021/07/01 00:19:19;;;;;;;16.40;14.83;;;;;;;;;;5041801;28;20503;-96
2021/07/01 00:21:46;;;;;;;16.87;14.77;;;;;;;;;;5032687;28;20488;-96
2021/07/01 00:27:37;;;;;;;21.80;17.30;;;;;;;;;;5033145;28;20482;-96
2021/07/01 00:30:06;;;;;;;21.93;16.00;;;;;;;;;;5041168;28;20447;-96
2021/07/01 00:32:33;;;;;;;17.53;15.37;;;;;;;;;;5019780;28;20459;-96
2021/07/01 00:35:00;;;;;;;17.43;15.77;;;;;;;;;;5043026;28;20468;-96
2021/07/01 00:37:29;;;;;;;19.60;15.40;;;;;;;;;;5037182;28;20452;-96
2021/07/01 00:39:56;;;;;;;16.77;14.97;;;;;;;;;;5047779;28;20548;-96
2021/07/01 00:42:23;;;;;;;17.60;15.80;;;;;;;;;;5033828;28;20465;-95
2021/07/01 00:44:49;;;;;;;18.30;15.20;;;;;;;;;;5040099;28;20437;-94
2021/07/01 00:47:18;;;;;;;17.17;15.07;;;;;;;;;;5021126;28;20461;-96
2021/07/01 00:49:45;;;;;;;16.27;14.73;;;;;;;;;;5038543;28;20460;-95
2021/07/01 00:52:11;;;;;;;17.43;15.63;;;;;;;;;;5038965;28;20455;-94
2021/07/01 00:54:38;;;;;;;19.73;15.80;;;;;;;;;;5033678;28;20456;-96
2021/07/01 00:57:06;;;;;;;19.57;16.60;;;;;;;;;;5044045;28;20451;-96
2021/07/01 00:59:33;;;;;;;20.30;16.13;;;;;;;;;;5035164;28;21020;-95
2021/07/01 01:02:00;;;;;;;15.53;14.03;;;;;;;;;;5045980;28;20887;-95
2021/07/01 01:04:28;;;;;;;17.73;14.60;;;;;;;;;;5042802;28;20469;-96
2021/07/01 01:06:55;;;;;;;19.33;16.37;;;;;;;;;;5044825;28;20456;-96
2021/07/01 01:09:22;;;;;;;17.17;15.20;;;;;;;;;;5042264;28;20481;-96
2021/07/01 01:11:49;;;;;;;18.27;15.80;;;;;;;;;;5045693;28;20451;-96
2021/07/01 01:14:16;;;;;;;17.03;15.13;;;;;;;;;;5041471;28;20493;-95
2021/07/01 01:16:42;;;;;;;17.97;16.07;;;;;;;;;;5044672;28;20451;-95
2021/07/01 01:19:10;;;;;;;16.43;14.87;;;;;;;;;;5040003;28;20525;-95
2021/07/01 01:21:38;;;;;;;16.83;15.20;;;;;;;;;;5046326;28;20454;-95
2021/07/01 01:24:07;;;;;;;17.30;15.40;;;;;;;;;;5040538;28;20458;-96
2021/07/01 01:26:34;;;;;;;17.60;15.00;;;;;;;;;;5045475;28;20477;-96
2021/07/01 01:29:01;;;;;;;16.67;15.03;;;;;;;;;;5040239;28;20459;-96
2021/07/01 01:31:28;;;;;;;17.43;14.80;;;;;;;;;;5045973;28;20477;-96
2021/07/01 01:33:56;;;;;;;17.13;15.33;;;;;;;;;;5042210;28;20451;-96
2021/07/01 01:36:23;;;;;;;16.97;15.10;;;;;;;;;;5042113;28;20474;-95
2021/07/01 01:38:49;;;;;;;18.27;14.73;;;;;;;;;;5044159;28;20455;-96
2021/07/01 01:41:22;;;;;;;17.97;14.50;;;;;;;;;;5039667;28;20462;-95
2021/07/01 01:43:49;;;;;;;19.27;15.20;;;;;;;;;;5045655;28;20505;-95
2021/07/01 01:46:15;;;;;;;16.60;14.90;;;;;;;;;;5039305;28;20474;-96
2021/07/01 01:48:43;;;;;;;17.30;14.20;;;;;;;;;;5045481;28;20459;-96
2021/07/01 01:51:10;;;;;;;18.20;15.63;;;;;;;;;;5041876;28;20490;-96
2021/07/01 01:53:37;;;;;;;16.80;14.63;;;;;;;;;;5044297;28;20474;-95
2021/07/01 01:56:04;;;;;;;18.87;16.20;;;;;;;;;;5037371;28;20451;-96
2021/07/01 01:58:32;;;;;;;18.23;13.30;;;;;;;;;;5044532;28;20451;-95
2021/07/01 02:00:59;;;;;;;16.90;15.10;;;;;;;;;;5037435;28;20487;-94
2021/07/01 02:03:26;;;;;;;18.47;15.97;;;;;;;;;;5045000;28;20448;-96
2021/07/01 02:05:53;;;;;;;16.20;14.43;;;;;;;;;;5036611;28;20522;-95
2021/07/01 02:08:20;;;;;;;18.17;14.90;;;;;;;;;;5045254;28;20443;-95
2021/07/01 02:10:46;;;;;;;18.43;15.93;;;;;;;;;;5041437;28;20458;-95
2021/07/01 02:13:13;;;;;;;17.60;15.37;;;;;;;;;;5044264;28;20447;-96
2021/07/01 02:15:42;;;;;;;17.30;15.27;;;;;;;;;;5039664;28;20451;-96
2021/07/01 02:18:09;;;;;;;18.00;15.30;;;;;;;;;;5040615;28;20451;-94
2021/07/01 02:20:35;;;;;;;19.83;16.47;;;;;;;;;;5041808;28;20503;-94
2021/07/01 02:23:04;;;;;;;17.23;15.30;;;;;;;;;;5036435;28;20447;-94
2021/07/01 02:25:30;;;;;;;18.17;16.27;;;;;;;;;;5044507;28;20534;-95
2021/07/01 02:27:57;;;;;;;21.97;15.40;;;;;;;;;;5033544;28;20463;-96
2021/07/01 02:30:24;;;;;;;17.77;15.73;;;;;;;;;;5043183;28;20451;-94
2021/07/01 02:32:52;;;;;;;18.57;15.87;;;;;;;;;;5032280;28;20459;-96
2021/07/01 02:35:19;;;;;;;18.83;15.80;;;;;;;;;;5042975;28;20455;-96
2021/07/01 02:37:46;;;;;;;20.80;17.80;;;;;;;;;;5032847;28;20451;-96
2021/07/01 02:40:15;;;;;;;20.53;16.10;;;;;;;;;;5042896;28;20501;-96
2021/07/01 02:42:42;;;;;;;24.40;16.60;;;;;;;;;;5040774;28;20847;-95
2021/07/01 02:45:09;;;;;;;23.90;16.73;;;;;;;;;;5043302;28;20455;-96
2021/07/01 02:47:37;;;;;;;19.40;17.37;;;;;;;;;;5042705;28;20466;-96
2021/07/01 02:50:06;;;;;;;22.83;16.97;;;;;;;;;;5043969;28;20463;-94
2021/07/01 02:52:33;;;;;;;19.13;17.13;;;;;;;;;;5039491;28;20447;-96
2021/07/01 02:55:00;;;;;;;17.70;15.50;;;;;;;;;;5042539;28;20485;-95
2021/07/01 02:57:27;;;;;;;18.53;16.60;;;;;;;;;;5037523;28;20451;-95
2021/07/01 02:59:53;;;;;;;18.87;16.97;;;;;;;;;;5043193;28;20494;-95
2021/07/01 03:02:20;;;;;;;18.40;16.40;;;;;;;;;;5041328;28;20451;-96
2021/07/01 03:04:47;;;;;;;19.30;15.87;;;;;;;;;;5043197;28;20545;-95
2021/07/01 03:07:16;;;;;;;19.57;15.30;;;;;;;;;;5043577;28;20486;-96
2021/07/01 03:09:43;;;;;;;21.73;16.70;;;;;;;;;;5038593;28;20459;-96
2021/07/01 03:12:10;;;;;;;19.87;16.17;;;;;;;;;;5043643;28;20443;-95
2021/07/01 03:14:37;;;;;;;21.10;15.50;;;;;;;;;;5037750;28;20505;-96
2021/07/01 03:17:04;;;;;;;17.17;15.20;;;;;;;;;;5042249;28;20450;-95
2021/07/01 03:19:30;;;;;;;17.90;16.00;;;;;;;;;;5035486;28;21416;-95
2021/07/01 03:21:57;;;;;;;19.90;15.53;;;;;;;;;;5042506;28;20482;-95
2021/07/01 03:24:26;;;;;;;17.57;15.13;;;;;;;;;;5037201;28;20525;-95
2021/07/01 03:26:53;;;;;;;20.90;16.70;;;;;;;;;;5043652;28;20501;-95
2021/07/01 03:29:19;;;;;;;17.67;15.90;;;;;;;;;;5036505;28;20459;-96
2021/07/01 03:31:46;;;;;;;22.17;16.60;;;;;;;;;;5041526;28;20455;-95
2021/07/01 03:34:14;;;;;;;19.83;16.03;;;;;;;;;;5034060;28;20472;-95
2021/07/01 03:36:41;;;;;;;20.10;17.90;;;;;;;;;;5042333;28;20510;-96
2021/07/01 03:39:08;;;;;;;18.97;16.93;;;;;;;;;;5036304;28;20977;-96
2021/07/01 03:41:36;;;;;;;17.27;15.47;;;;;;;;;;5042932;28;20925;-95
2021/07/01 03:44:03;;;;;;;18.80;16.73;;;;;;;;;;5038979;28;20451;-95
2021/07/01 03:46:30;;;;;;;18.17;16.33;;;;;;;;;;5039263;28;20459;-95
2021/07/01 03:48:57;;;;;;;21.10;15.67;;;;;;;;;;5041958;28;20814;-96
2021/07/01 03:51:23;;;;;;;20.40;16.97;;;;;;;;;;5033315;28;20447;-95
2021/07/01 03:53:50;;;;;;;22.03;16.30;;;;;;;;;;5041283;28;20867;-95
2021/07/01 03:56:17;;;;;;;19.87;16.33;;;;;;;;;;5033251;28;20458;-95
2021/07/01 03:58:45;;;;;;;17.80;14.93;;;;;;;;;;5042047;28;20451;-96
2021/07/01 04:01:12;;;;;;;17.63;15.90;;;;;;;;;;5034153;28;20497;-96
2021/07/01 04:03:39;;;;;;;18.57;15.77;;;;;;;;;;5042749;28;20466;-96
2021/07/01 04:06:06;;;;;;;19.13;15.03;;;;;;;;;;5032631;28;20509;-95
2021/07/01 04:08:32;;;;;;;23.23;16.87;;;;;;;;;;5042421;28;20450;-96
2021/07/01 04:10:59;;;;;;;18.77;15.83;;;;;;;;;;5032704;28;20470;-95
2021/07/01 04:13:26;;;;;;;17.77;15.87;;;;;;;;;;5043248;28;20862;-95
2021/07/01 04:15:54;;;;;;;19.37;15.53;;;;;;;;;;5033057;28;20447;-95
2021/07/01 04:18:21;;;;;;;28.80;17.00;;;;;;;;;;5041954;28;21005;-95
2021/07/01 04:20:48;;;;;;;22.03;15.67;;;;;;;;;;5034651;28;20526;-95
2021/07/01 04:23:15;;;;;;;17.87;15.23;;;;;;;;;;5038725;28;20448;-95
2021/07/01 04:25:41;;;;;;;21.40;15.63;;;;;;;;;;5039066;28;20461;-95
2021/07/01 04:28:08;;;;;;;19.30;15.50;;;;;;;;;;5037569;28;20478;-96
2021/07/01 04:30:35;;;;;;;17.57;15.13;;;;;;;;;;5042503;28;20485;-94
2021/07/01 04:33:03;;;;;;;19.20;14.87;;;;;;;;;;5033679;28;20446;-96
2021/07/01 04:35:31;;;;;;;20.20;15.90;;;;;;;;;;5045960;28;20459;-94
2021/07/01 04:37:58;;;;;;;18.03;16.23;;;;;;;;;;5042854;28;20467;-95
2021/07/01 04:40:25;;;;;;;17.40;15.30;;;;;;;;;;5047934;28;20486;-95
2021/07/01 04:42:52;;;;;;;17.30;15.43;;;;;;;;;;5042884;28;20858;-94
2021/07/01 04:45:19;;;;;;;15.70;14.03;;;;;;;;;;5046773;28;20465;-95
2021/07/01 04:47:45;;;;;;;20.23;15.93;;;;;;;;;;5042034;28;20461;-96
2021/07/01 04:50:14;;;;;;;21.13;16.10;;;;;;;;;;5046229;28;20466;-95
2021/07/01 04:52:41;;;;;;;21.67;16.10;;;;;;;;;;5041632;28;20462;-96
2021/07/01 04:55:08;;;;;;;18.77;14.60;;;;;;;;;;5028191;28;20443;-96
2021/07/01 04:57:35;;;;;;;16.57;14.20;;;;;;;;;;5039210;28;20463;-95
2021/07/01 05:00:18;;;;;;;17.60;14.53;;;;;;;;;;5046019;28;20474;-96
2021/07/01 05:02:44;;;;;;;23.07;15.60;;;;;;;;;;5039204;28;20461;-95
2021/07/01 05:05:12;;;;;;;25.47;15.10;;;;;;;;;;5045166;28;20490;-94
2021/07/01 05:07:43;;;;;;;21.77;15.37;;;;;;;;;;5040484;28;20979;-95
2021/07/01 05:10:10;;;;;;;22.93;15.07;;;;;;;;;;5044944;28;20482;-95
2021/07/01 05:12:36;;;;;;;17.60;15.73;;;;;;;;;;5037856;28;20492;-95
2021/07/01 05:15:03;;;;;;;17.70;14.70;;;;;;;;;;5043918;28;20456;-95
2021/07/01 05:17:31;;;;;;;19.63;15.37;;;;;;;;;;5042084;28;20505;-95
2021/07/01 05:19:57;;;;;;;19.80;14.23;;;;;;;;;;5042977;28;20471;-96
2021/07/01 05:22:24;;;;;;;20.33;15.87;;;;;;;;;;5044063;28;20447;-95
2021/07/01 05:24:52;;;;;;;19.80;15.80;;;;;;;;;;5037595;28;20520;-96
2021/07/01 05:27:19;;;;;;;21.67;15.30;;;;;;;;;;5048215;28;20479;-96
2021/07/01 05:29:46;;;;;;;14.80;13.07;;;;;;;;;;5039490;28;20451;-95
2021/07/01 05:32:13;;;;;;;22.40;16.20;;;;;;;;;;5046866;28;20508;-96
2021/07/01 05:34:40;;;;;;;20.60;15.50;;;;;;;;;;5038490;28;20497;-96
2021/07/01 05:37:07;;;;;;;19.07;15.80;;;;;;;;;;5046782;28;20458;-95
2021/07/01 05:39:34;;;;;;;22.17;15.10;;;;;;;;;;5037890;28;20470;-96
2021/07/01 05:42:02;;;;;;;20.27;15.80;;;;;;;;;;5044297;28;20498;-96
2021/07/01 05:44:28;;;;;;;18.63;15.00;;;;;;;;;;5041733;28;20458;-96
2021/07/01 05:46:54;;;;;;;20.37;15.60;;;;;;;;;;5048866;28;20489;-96
2021/07/01 05:49:21;;;;;;;23.30;16.23;;;;;;;;;;5036104;28;20518;-96
2021/07/01 05:51:50;;;;;;;20.37;15.03;;;;;;;;;;5043449;28;20516;-96
2021/07/01 05:54:21;;;;;;;19.53;14.47;;;;;;;;;;5040913;28;20463;-96
2021/07/01 05:56:48;;;;;;;20.30;14.27;;;;;;;;;;5018856;28;20494;-96
2021/07/01 05:59:16;;;;;;;23.17;15.70;;;;;;;;;;5029506;28;20449;-96
2021/07/01 06:01:43;;;;;;;20.87;14.87;;;;;;;;;;5035776;28;21561;-96
2021/07/01 06:04:10;;;;;;;19.10;15.17;;;;;;;;;;5031140;28;20447;-95
2021/07/01 06:06:39;;;;;;;25.90;15.23;;;;;;;;;;5034411;28;20541;-96
2021/07/01 06:09:06;;;;;;;19.00;14.67;;;;;;;;;;5047256;28;20458;-96
2021/07/01 06:11:33;;;;;;;16.00;14.33;;;;;;;;;;5030767;28;20749;-96
2021/07/01 06:16:32;;;;;;;21.10;14.20;;;;;;;;;;5083024;23;20483;-96
2021/07/01 06:18:58;;;;;;;24.17;14.80;;;;;;;;;;5006504;28;20519;-96
2021/07/01 06:26:33;;;;;;;22.63;14.23;;;;;;;;;;5050778;28;20859;-96
2021/07/01 06:31:47;;;;;;;15.60;13.47;;;;;;;;;;5093303;22;20502;-96
2021/07/01 06:34:16;;;;;;;23.97;14.90;;;;;;;;;;5038653;28;20443;-96
2021/07/01 06:42:33;;;;;;;17.97;14.70;;;;;;;;;;5105316;22;20473;-96
2021/07/01 06:47:47;;;;;;;18.27;14.60;;;;;;;;;;5464549;22;20522;-95
2021/07/01 06:50:15;;;;;;;17.53;13.30;;;;;;;;;;5053031;28;20459;-96
2021/07/01 06:52:42;;;;;;;17.33;15.27;;;;;;;;;;5043082;28;20448;-96
2021/07/01 06:55:09;;;;;;;16.23;14.63;;;;;;;;;;5054251;28;20454;-95
2021/07/01 06:57:36;;;;;;;25.20;14.90;;;;;;;;;;5049287;28;20470;-95
2021/07/01 07:00:03;;;;;;;19.77;14.20;;;;;;;;;;5058350;28;20458;-96
2021/07/01 07:12:49;;;;;;;19.63;14.77;;;;;;;;;;5036943;28;20498;-95
2021/07/01 07:15:17;;;;;;;15.13;13.50;;;;;;;;;;5038290;28;20451;-94
2021/07/01 07:17:44;;;;;;;15.50;13.97;;;;;;;;;;5049239;28;20459;-94
2021/07/01 07:20:14;;;;;;;18.23;13.93;;;;;;;;;;5037567;28;20448;-96
2021/07/01 07:22:41;;;;;;;17.53;13.97;;;;;;;;;;5053233;28;20487;-96
2021/07/01 07:25:09;;;;;;;20.20;13.20;;;;;;;;;;5051230;28;20497;-96
2021/07/01 07:27:37;;;;;;;15.73;13.30;;;;;;;;;;5058000;28;20434;-96
2021/07/01 07:30:14;;;;;;;19.53;15.03;;;;;;;;;;5056492;28;20447;-93
2021/07/01 07:32:43;;;;;;;15.80;13.33;;;;;;;;;;5058954;28;20438;-95
2021/07/01 07:35:11;;;;;;;15.37;13.77;;;;;;;;;;5061507;22;20495;-96
2021/07/01 07:37:37;;;;;;;20.57;14.50;;;;;;;;;;5057812;28;20443;-96
2021/07/01 07:40:39;;;;;;;24.30;14.60;;;;;;;;;;5057052;28;20461;-95
2021/07/01 07:43:19;;;;;;;18.47;13.77;;;;;;;;;;5235998;22;20487;-96
2021/07/01 07:45:49;;;;;;;18.80;14.00;;;;;;;;;;5075349;23;20506;-95
2021/07/01 08:17:58;;;;;;;19.50;14.97;;;;;;;;;;4157985;23;21724;-96
2021/07/01 08:20:53;;;;;;;19.70;14.70;;;;;;;;;;5062816;28;20426;-96
2021/07/01 08:23:21;;;;;;;14.43;12.93;;;;;;;;;;5026740;28;20463;-96
2021/07/01 08:25:48;;;;;;;14.27;12.87;;;;;;;;;;5057063;28;20419;-96
2021/07/01 08:30:50;;;;;;;23.93;13.13;;;;;;;;;;3294960;23;20507;-96
2021/07/01 08:33:23;;;;;;;15.40;13.90;;;;;;;;;;5032373;28;20436;-96
2021/07/01 08:35:51;;;;;;;14.50;13.00;;;;;;;;;;5125001;22;20521;-96
2021/07/01 08:44:01;;;;;;;14.83;13.07;;;;;;;;;;5787196;22;20471;-95
2021/07/01 08:51:58;;;;;;;13.13;11.80;;;;;;;;;;5419878;22;20478;-96
2021/07/01 09:06:04;;;;;;;17.63;10.70;;;;;;;;;;993464;22;20728;-96
2021/07/01 09:08:33;;;;;;;21.97;11.03;;;;;;;;;;5022083;28;20421;-90
2021/07/01 09:11:03;;;;;;;15.20;9.87;;;;;;;;;;5017984;28;20449;-96
2021/07/01 09:13:31;;;;;;;23.03;10.10;;;;;;;;;;5023230;28;20445;-92
2021/07/01 09:15:58;;;;;;;21.60;9.97;;;;;;;;;;5002462;28;20452;-96
2021/07/01 09:18:25;;;;;;;18.77;10.70;;;;;;;;;;5036109;28;20432;-94
2021/07/01 09:20:52;;;;;;;17.27;10.60;;;;;;;;;;5024983;28;20463;-91
2021/07/01 10:12:18;;;;;;;22.13;9.50;;;;;;;;;;5288217;22;20464;-95
2021/07/01 10:14:45;;;;;;;23.53;9.47;;;;;;;;;;5021579;28;20452;-89
2021/07/01 10:25:05;;;;;;;19.77;9.13;;;;;;;;;;5348562;22;20476;-96
2021/07/01 10:38:07;;;;;;;23.17;9.20;;;;;;;;;;5333362;22;20571;-96
2021/07/01 10:51:52;;;;;;;24.63;9.03;;;;;;;;;;5891787;23;21428;-96
2021/07/01 11:11:20;;;;;;;19.23;8.50;;;;;;;;;;5387799;22;20472;-96
2021/07/01 11:13:53;;;;;;;18.73;8.00;;;;;;;;;;5019704;28;20432;-96
2021/07/01 11:18:55;;;;;;;25.50;8.30;;;;;;;;;;5084781;22;20494;-96
2021/07/01 11:59:42;;;;;;;25.77;7.90;;;;;;;;;;5292105;22;20471;-95
2021/07/01 12:23:44;;;;;;;18.97;7.50;;;;;;;;;;4228114;22;20498;-96
2021/07/01 12:42:23;;;;;;;21.17;9.07;;;;;;;;;;5043981;28;20486;-95
2021/07/01 12:53:31;;;;;;;18.37;8.43;;;;;;;;;;5238950;23;20542;-96
2021/07/01 12:56:20;;;;;;;21.20;8.43;;;;;;;;;;5041146;28;20446;-96
2021/07/01 12:58:49;;;;;;;24.73;9.97;;;;;;;;;;5042231;28;20431;-96
2021/07/01 13:03:56;;;;;;;20.47;8.00;;;;;;;;;;5035093;28;20467;-96
2021/07/01 13:22:20;;;;;;;22.17;6.93;;;;;;;;;;5055579;22;20483;-96
2021/07/01 13:25:00;;;;;;;18.80;7.00;;;;;;;;;;5029244;28;20431;-96
2021/07/01 13:27:50;;;;;;;18.47;5.57;;;;;;;;;;5038988;28;20451;-96
2021/07/01 13:33:01;;;;;;;30.37;6.77;;;;;;;;;;5074479;22;20471;-96
2021/07/01 13:38:50;;;;;;;20.87;6.93;;;;;;;;;;5014375;28;20472;-96
2021/07/01 13:59:57;;;;;;;16.57;6.57;;;;;;;;;;4867639;23;20501;-96
2021/07/01 14:02:24;;;;;;;22.97;6.80;;;;;;;;;;5093217;23;20499;-96
2021/07/01 14:04:54;;;;;;;19.20;7.57;;;;;;;;;;5032348;23;20472;-96
2021/07/01 14:15:22;;;;;;;20.87;5.27;;;;;;;;;;5182311;22;20485;-96
2021/07/01 14:18:23;;;;;;;12.93;5.73;;;;;;;;;;5039924;28;20484;-96
2021/07/01 14:21:12;;;;;;;16.03;5.60;;;;;;;;;;5030732;22;20496;-96
2021/07/01 14:23:43;;;;;;;9.47;4.67;;;;;;;;;;5012361;28;20480;-96
2021/07/01 14:26:17;;;;;;;21.30;6.83;;;;;;;;;;5008988;28;20477;-95
2021/07/01 14:29:22;;;;;;;16.07;5.63;;;;;;;;;;5026531;28;20444;-96
2021/07/01 14:34:33;;;;;;;14.37;5.20;;;;;;;;;;4925333;26;20485;-96
2021/07/01 14:37:32;;;;;;;17.70;5.67;;;;;;;;;;4984466;28;20462;-96
2021/07/01 14:40:27;;;;;;;14.73;5.73;;;;;;;;;;5005305;23;20502;-96
2021/07/01 14:43:02;;;;;;;15.40;5.37;;;;;;;;;;5096230;22;20499;-96
2021/07/01 14:45:31;;;;;;;25.83;8.00;;;;;;;;;;5032967;28;20464;-96
2021/07/01 14:47:59;;;;;;;18.00;5.50;;;;;;;;;;5030834;28;20452;-96
2021/07/01 14:50:28;;;;;;;12.80;5.57;;;;;;;;;;5057253;22;20599;-96
2021/07/01 14:52:55;;;;;;;12.20;5.33;;;;;;;;;;5275203;22;20501;-95
2021/07/01 14:55:36;;;;;;;10.70;5.30;;;;;;;;;;5214141;22;20548;-96
2021/07/01 14:58:10;;;;;;;15.20;5.70;;;;;;;;;;5015254;28;20582;-96
2021/07/01 15:03:25;;;;;;;17.87;5.20;;;;;;;;;;5028696;28;20566;-96
2021/07/01 15:06:16;;;;;;;16.97;6.33;;;;;;;;;;5033913;28;20420;-96
2021/07/01 15:11:27;;;;;;;18.20;6.47;;;;;;;;;;4986919;22;1212142;-96
2021/07/01 16:10:40;;;;;;;12.50;5.70;;;;;;;;;;5680169;22;20518;-96
2021/07/01 16:13:08;;;;;;;14.53;5.90;;;;;;;;;;5037620;28;20466;-96
2021/07/01 16:21:12;;;;;;;20.13;6.03;;;;;;;;;;6123538;22;21502;-96
2021/07/01 17:02:12;;;;;;;23.83;7.53;;;;;;;;;;5875622;23;20463;-96
2021/07/01 17:05:01;;;;;;;13.10;5.77;;;;;;;;;;5059606;22;20442;-96
2021/07/01 17:07:28;;;;;;;25.43;6.90;;;;;;;;;;5051309;23;20498;-96
2021/07/01 17:09:54;;;;;;;14.20;6.20;;;;;;;;;;5050706;28;20455;-96
2021/07/01 17:14:58;;;;;;;16.97;6.10;;;;;;;;;;5067136;22;20499;-95
2021/07/01 17:17:28;;;;;;;22.10;6.03;;;;;;;;;;5042419;22;20502;-96
2021/07/01 17:19:56;;;;;;;17.27;5.90;;;;;;;;;;5033995;28;20450;-96
2021/07/01 17:22:28;;;;;;;19.50;4.97;;;;;;;;;;5055186;23;20549;-96
2021/07/01 17:24:55;;;;;;;13.40;4.93;;;;;;;;;;5018217;28;21015;-96
2021/07/01 17:27:23;;;;;;;19.40;5.20;;;;;;;;;;5202030;23;20500;-96
2021/07/01 17:30:15;;;;;;;15.30;4.87;;;;;;;;;;5037005;28;20484;-96
2021/07/01 17:35:21;;;;;;;18.13;4.77;;;;;;;;;;5042062;22;20496;-96
2021/07/01 17:37:48;;;;;;;12.10;3.87;;;;;;;;;;5034695;28;20436;-96
2021/07/01 17:40:17;;;;;;;11.43;4.27;;;;;;;;;;5021803;28;20445;-95
2021/07/01 17:42:45;;;;;;;14.13;5.00;;;;;;;;;;5023998;28;20483;-95
2021/07/01 17:45:12;;;;;;;18.70;5.40;;;;;;;;;;5014192;28;20457;-96
2021/07/01 17:47:47;;;;;;;15.60;4.00;;;;;;;;;;5111501;22;20557;-95
2021/07/01 17:50:14;;;;;;;15.53;4.53;;;;;;;;;;5044328;22;20494;-94
2021/07/01 17:52:42;;;;;;;12.97;3.87;;;;;;;;;;5037585;28;20447;-96
2021/07/01 17:55:09;;;;;;;18.63;4.53;;;;;;;;;;5047785;28;20463;-96
2021/07/01 17:57:49;;;;;;;15.77;4.67;;;;;;;;;;5053888;28;20467;-96
2021/07/01 18:00:18;;;;;;;13.90;4.40;;;;;;;;;;5033940;28;20458;-95
2021/07/01 18:02:47;;;;;;;14.30;4.00;;;;;;;;;;5094702;22;20491;-93
2021/07/01 18:07:54;;;;;;;11.07;4.60;;;;;;;;;;5014492;28;20503;-96
2021/07/01 18:10:23;;;;;;;11.83;4.47;;;;;;;;;;5047621;23;20480;-96
2021/07/01 18:12:50;;;;;;;10.93;5.03;;;;;;;;;;5031608;28;20458;-96
2021/07/01 18:15:18;;;;;;;9.10;4.80;;;;;;;;;;5053243;28;20432;-96
2021/07/01 18:17:45;;;;;;;13.80;3.63;;;;;;;;;;5047533;22;20494;-96
2021/07/01 18:20:13;;;;;;;7.53;3.33;;;;;;;;;;5045589;28;20434;-96
2021/07/01 18:22:40;;;;;;;9.67;4.00;;;;;;;;;;5039107;28;20471;-96
2021/07/01 18:25:09;;;;;;;9.00;3.97;;;;;;;;;;5054994;28;20478;-96
2021/07/01 18:37:50;;;;;;;14.33;4.53;;;;;;;;;;5041808;28;20459;-96
2021/07/01 18:40:21;;;;;;;10.30;4.73;;;;;;;;;;5053554;28;20443;-96
2021/07/01 18:45:41;;;;;;;10.63;4.63;;;;;;;;;;5038164;28;20451;-96
2021/07/01 18:53:27;;;;;;;11.60;5.10;;;;;;;;;;5043021;22;20514;-96
2021/07/01 18:58:40;;;;;;;11.43;5.10;;;;;;;;;;5105358;22;20491;-96
2021/07/01 19:01:07;;;;;;;14.03;5.27;;;;;;;;;;5033465;28;20483;-96
2021/07/01 19:03:33;;;;;;;22.27;6.63;;;;;;;;;;5034515;28;20462;-96
2021/07/01 19:06:06;;;;;;;14.20;5.30;;;;;;;;;;5051598;28;20474;-96
2021/07/01 19:08:35;;;;;;;11.30;6.20;;;;;;;;;;5074392;22;20450;-96
2021/07/01 19:11:03;;;;;;;12.37;5.93;;;;;;;;;;5015717;28;20458;-96
2021/07/01 19:16:09;;;;;;;14.67;6.23;;;;;;;;;;5025034;28;20468;-96
2021/07/01 19:18:37;;;;;;;21.83;6.53;;;;;;;;;;5044121;23;20496;-96
2021/07/01 19:21:04;;;;;;;19.90;6.73;;;;;;;;;;5021893;28;20431;-96
2021/07/01 19:23:30;;;;;;;23.47;6.60;;;;;;;;;;5061314;22;20557;-96
2021/07/01 19:28:34;;;;;;;17.27;6.23;;;;;;;;;;5214440;23;20478;-92
2021/07/01 19:33:36;;;;;;;15.73;6.57;;;;;;;;;;5071802;22;20475;-91
2021/07/01 19:43:58;;;;;;;14.10;7.03;;;;;;;;;;5164773;22;20502;-96
2021/07/01 19:46:28;;;;;;;14.40;6.60;;;;;;;;;;5176551;22;20475;-96
2021/07/01 19:51:45;;;;;;;18.03;7.47;;;;;;;;;;5203749;23;20517;-95
2021/07/01 19:54:12;;;;;;;24.23;7.60;;;;;;;;;;5054848;28;20435;-95
2021/07/01 19:56:50;;;;;;;13.77;6.90;;;;;;;;;;5041916;28;20553;-96
2021/07/01 19:59:18;;;;;;;15.23;7.97;;;;;;;;;;5055535;28;20450;-96
2021/07/01 20:01:47;;;;;;;19.77;8.13;;;;;;;;;;5036468;28;20463;-96
2021/07/01 20:04:14;;;;;;;15.90;7.87;;;;;;;;;;5048029;28;20486;-96
2021/07/01 20:06:40;;;;;;;18.90;7.83;;;;;;;;;;5068562;23;20509;-95
2021/07/01 20:09:07;;;;;;;15.03;7.57;;;;;;;;;;5054037;28;20423;-96
2021/07/01 20:11:34;;;;;;;15.03;7.90;;;;;;;;;;5061111;28;20446;-96
2021/07/01 20:14:00;;;;;;;12.67;8.17;;;;;;;;;;5143587;22;20524;-96
2021/07/01 20:19:39;;;;;;;17.57;7.90;;;;;;;;;;5038004;28;20451;-96
2021/07/01 20:22:25;;;;;;;15.60;7.97;;;;;;;;;;5040377;28;20532;-96
2021/07/01 20:28:01;;;;;;;9.50;7.73;;;;;;;;;;5024549;28;20450;-96
2021/07/01 20:41:42;;;;;;;14.90;9.43;;;;;;;;;;2318260;22;20815;-96
2021/07/01 20:44:10;;;;;;;13.83;7.90;;;;;;;;;;5046149;28;20470;-96
2021/07/01 20:46:55;;;;;;;19.17;9.00;;;;;;;;;;5045107;28;20443;-96
2021/07/01 20:49:24;;;;;;;17.40;8.57;;;;;;;;;;5039180;28;20458;-96
2021/07/01 20:51:51;;;;;;;17.77;9.37;;;;;;;;;;5038579;28;20437;-95
2021/07/01 20:54:26;;;;;;;13.43;8.30;;;;;;;;;;5028840;28;20456;-96
2021/07/01 20:56:55;;;;;;;13.90;9.10;;;;;;;;;;5016533;28;20479;-96
2021/07/01 20:59:28;;;;;;;13.53;7.97;;;;;;;;;;5025035;28;20468;-96
2021/07/01 21:01:56;;;;;;;17.70;8.40;;;;;;;;;;5040045;28;20459;-96
2021/07/01 21:04:23;;;;;;;12.50;8.50;;;;;;;;;;5037011;28;20487;-96
2021/07/01 21:06:53;;;;;;;12.33;8.10;;;;;;;;;;5033846;28;20465;-96
2021/07/01 21:09:21;;;;;;;17.60;7.67;;;;;;;;;;5040030;28;20484;-96
2021/07/01 21:11:49;;;;;;;11.50;8.13;;;;;;;;;;5024054;28;20460;-96
2021/07/01 21:14:17;;;;;;;13.20;7.87;;;;;;;;;;5030295;28;20457;-96
2021/07/01 21:16:46;;;;;;;14.33;7.87;;;;;;;;;;5028440;28;20474;-96
2021/07/01 21:19:12;;;;;;;16.40;9.17;;;;;;;;;;5028179;28;20452;-96
2021/07/01 21:21:49;;;;;;;16.67;8.20;;;;;;;;;;5031399;28;20448;-96
2021/07/01 21:24:16;;;;;;;13.57;8.97;;;;;;;;;;5034150;28;20494;-96
2021/07/01 21:26:42;;;;;;;16.70;9.10;;;;;;;;;;5037849;28;20464;-96
2021/07/01 21:29:09;;;;;;;16.90;8.80;;;;;;;;;;5027621;28;20434;-96
2021/07/01 21:31:36;;;;;;;15.77;9.20;;;;;;;;;;5041783;28;20474;-96
2021/07/01 21:34:04;;;;;;;14.97;9.10;;;;;;;;;;5050610;28;20447;-96
2021/07/01 21:39:06;;;;;;;11.10;8.63;;;;;;;;;;5019292;28;21055;-96
2021/07/01 21:41:33;;;;;;;16.47;7.53;;;;;;;;;;5008231;28;20868;-94
2021/07/01 21:44:00;;;;;;;12.33;8.50;;;;;;;;;;5015963;28;20825;-95
2021/07/01 21:46:27;;;;;;;17.20;9.03;;;;;;;;;;5010193;28;20475;-96
2021/07/01 21:48:53;;;;;;;17.40;10.30;;;;;;;;;;5012077;28;20457;-96
2021/07/01 21:51:22;;;;;;;16.47;9.07;;;;;;;;;;5006223;28;20481;-96
2021/07/01 21:53:50;;;;;;;19.03;8.30;;;;;;;;;;5008376;28;20453;-96
2021/07/01 21:56:18;;;;;;;14.70;8.33;;;;;;;;;;5008294;28;20449;-96
2021/07/01 21:58:45;;;;;;;18.23;9.23;;;;;;;;;;5021782;28;20453;-96
2021/07/01 22:01:12;;;;;;;12.40;8.03;;;;;;;;;;5017431;28;20451;-96
2021/07/01 22:03:39;;;;;;;11.37;8.40;;;;;;;;;;5018999;28;21004;-94
2021/07/01 22:06:05;;;;;;;11.93;8.03;;;;;;;;;;5023306;28;20510;-95
2021/07/01 22:08:33;;;;;;;13.90;9.30;;;;;;;;;;5009165;28;20532;-95
2021/07/01 22:11:01;;;;;;;14.23;8.73;;;;;;;;;;5016431;28;20436;-94
2021/07/01 22:13:29;;;;;;;13.33;8.57;;;;;;;;;;5009000;28;20484;-96
2021/07/01 22:16:08;;;;;;;16.67;8.30;;;;;;;;;;5015932;28;20449;-96
2021/07/01 22:18:36;;;;;;;13.07;8.67;;;;;;;;;;5007107;28;20460;-95
2021/07/01 22:21:03;;;;;;;15.13;8.23;;;;;;;;;;5024496;28;20451;-94
2021/07/01 22:23:30;;;;;;;20.70;10.20;;;;;;;;;;5021077;28;20483;-95
2021/07/01 22:26:02;;;;;;;11.07;8.53;;;;;;;;;;5020306;28;20489;-96
2021/07/01 22:28:29;;;;;;;21.93;8.90;;;;;;;;;;5014943;28;20453;-94
2021/07/01 22:30:56;;;;;;;14.27;8.10;;;;;;;;;;5014393;28;20984;-95
2021/07/01 22:33:23;;;;;;;19.40;9.30;;;;;;;;;;5012943;28;20460;-96
2021/07/01 22:35:50;;;;;;;13.13;8.70;;;;;;;;;;5013296;28;20445;-95
2021/07/01 22:38:19;;;;;;;14.70;8.90;;;;;;;;;;5020770;28;20480;-95
2021/07/01 22:40:45;;;;;;;21.20;8.60;;;;;;;;;;5006980;28;20457;-96
2021/07/01 22:43:13;;;;;;;21.13;9.27;;;;;;;;;;5012819;28;21030;-95
2021/07/01 22:45:40;;;;;;;16.93;9.27;;;;;;;;;;5003273;28;20484;-95
2021/07/01 22:48:07;;;;;;;17.90;9.40;;;;;;;;;;5005401;28;20484;-96
2021/07/01 22:50:33;;;;;;;16.67;9.10;;;;;;;;;;5002339;28;20484;-94
2021/07/01 22:53:00;;;;;;;17.40;8.97;;;;;;;;;;5002922;28;21694;-94